sensor_id;sensor_type;location;lat;lon;timestamp;pressure;altitude;pressure_sealevel;temperature
66170;BMP280;66757;44.024;20.456;2023-09-07T00:01:45;98471.91;;;18.24
66170;BMP280;66757;44.024;20.456;2023-09-07T00:04:10;98473.69;;;18.32
66170;BMP280;66757;44.024;20.456;2023-09-07T00:06:42;98473.03;;;18.23
66170;BMP280;66757;44.024;20.456;2023-09-07T00:09:08;98479.66;;;18.26
66170;BMP280;66757;44.024;20.456;2023-09-07T00:11:34;98474.22;;;18.38
66170;BMP280;66757;44.024;20.456;2023-09-07T00:13:59;98475.34;;;18.37
66170;BMP280;66757;44.024;20.456;2023-09-07T00:16:25;98474.16;;;18.22
66170;BMP280;66757;44.024;20.456;2023-09-07T00:18:50;98467.03;;;18.26
66170;BMP280;66757;44.024;20.456;2023-09-07T00:21:15;98469.44;;;17.91
66170;BMP280;66757;44.024;20.456;2023-09-07T00:23:41;98465.16;;;18.15
66170;BMP280;66757;44.024;20.456;2023-09-07T00:26:07;98462.78;;;18.13
66170;BMP280;66757;44.024;20.456;2023-09-07T00:28:32;98463.69;;;18.05
66170;BMP280;66757;44.024;20.456;2023-09-07T00:30:58;98469.41;;;18.03
66170;BMP280;66757;44.024;20.456;2023-09-07T00:33:24;98471.22;;;18.12
66170;BMP280;66757;44.024;20.456;2023-09-07T00:35:49;98465.53;;;17.64
66170;BMP280;66757;44.024;20.456;2023-09-07T00:38:14;98465.72;;;17.96
66170;BMP280;66757;44.024;20.456;2023-09-07T00:40:42;98454.72;;;18.13
66170;BMP280;66757;44.024;20.456;2023-09-07T00:43:07;98460.88;;;18.14
66170;BMP280;66757;44.024;20.456;2023-09-07T00:45:33;98450.25;;;18.17
66170;BMP280;66757;44.024;20.456;2023-09-07T00:47:58;98457.47;;;17.89
66170;BMP280;66757;44.024;20.456;2023-09-07T00:50:23;98451.69;;;17.62
66170;BMP280;66757;44.024;20.456;2023-09-07T00:52:49;98453.03;;;17.44
66170;BMP280;66757;44.024;20.456;2023-09-07T00:55:14;98454.16;;;17.43
66170;BMP280;66757;44.024;20.456;2023-09-07T00:57:40;98458.28;;;17.41
66170;BMP280;66757;44.024;20.456;2023-09-07T01:00:08;98459.53;;;17.43
66170;BMP280;66757;44.024;20.456;2023-09-07T01:02:34;98459.81;;;17.29
66170;BMP280;66757;44.024;20.456;2023-09-07T01:05:01;98458.50;;;17.48
66170;BMP280;66757;44.024;20.456;2023-09-07T01:07:35;98463.06;;;17.35
66170;BMP280;66757;44.024;20.456;2023-09-07T01:10:02;98469.34;;;17.51
66170;BMP280;66757;44.024;20.456;2023-09-07T01:12:28;98451.78;;;17.78
66170;BMP280;66757;44.024;20.456;2023-09-07T01:14:54;98456.59;;;17.97
66170;BMP280;66757;44.024;20.456;2023-09-07T01:17:19;98450.78;;;17.83
66170;BMP280;66757;44.024;20.456;2023-09-07T01:19:48;98449.88;;;17.79
66170;BMP280;66757;44.024;20.456;2023-09-07T01:22:15;98450.66;;;17.79
66170;BMP280;66757;44.024;20.456;2023-09-07T01:24:42;98451.44;;;17.80
66170;BMP280;66757;44.024;20.456;2023-09-07T01:27:09;98447.34;;;17.58
66170;BMP280;66757;44.024;20.456;2023-09-07T01:29:36;98444.41;;;17.75
66170;BMP280;66757;44.024;20.456;2023-09-07T01:32:02;98450.56;;;17.76
66170;BMP280;66757;44.024;20.456;2023-09-07T01:34:28;98457.50;;;17.77
66170;BMP280;66757;44.024;20.456;2023-09-07T01:36:54;98453.38;;;17.55
66170;BMP280;66757;44.024;20.456;2023-09-07T01:39:20;98460.41;;;17.59
66170;BMP280;66757;44.024;20.456;2023-09-07T01:41:45;98461.00;;;16.96
66170;BMP280;66757;44.024;20.456;2023-09-07T01:44:11;98458.59;;;17.51
66170;BMP280;66757;44.024;20.456;2023-09-07T01:46:36;98457.81;;;17.26
66170;BMP280;66757;44.024;20.456;2023-09-07T01:49:01;98456.84;;;17.43
66170;BMP280;66757;44.024;20.456;2023-09-07T01:51:27;98451.47;;;17.55
66170;BMP280;66757;44.024;20.456;2023-09-07T01:53:53;98451.91;;;17.57
66170;BMP280;66757;44.024;20.456;2023-09-07T01:56:19;98452.13;;;17.40
66170;BMP280;66757;44.024;20.456;2023-09-07T01:58:44;98452.94;;;16.83
66170;BMP280;66757;44.024;20.456;2023-09-07T02:01:27;98450.94;;;16.93
66170;BMP280;66757;44.024;20.456;2023-09-07T02:03:52;98444.09;;;17.28
66170;BMP280;66757;44.024;20.456;2023-09-07T02:06:18;98441.25;;;17.00
66170;BMP280;66757;44.024;20.456;2023-09-07T02:08:43;98440.63;;;17.27
66170;BMP280;66757;44.024;20.456;2023-09-07T02:11:10;98442.28;;;17.32
66170;BMP280;66757;44.024;20.456;2023-09-07T02:13:35;98436.59;;;17.46
66170;BMP280;66757;44.024;20.456;2023-09-07T02:16:05;98445.66;;;17.41
66170;BMP280;66757;44.024;20.456;2023-09-07T02:18:32;98446.31;;;17.14
66170;BMP280;66757;44.024;20.456;2023-09-07T02:21:04;98434.69;;;17.22
66170;BMP280;66757;44.024;20.456;2023-09-07T02:23:30;98438.03;;;17.31
66170;BMP280;66757;44.024;20.456;2023-09-07T02:25:55;98437.34;;;16.98
66170;BMP280;66757;44.024;20.456;2023-09-07T02:28:21;98433.34;;;17.16
66170;BMP280;66757;44.024;20.456;2023-09-07T02:30:48;98434.25;;;17.32
66170;BMP280;66757;44.024;20.456;2023-09-07T02:33:13;98436.53;;;16.85
66170;BMP280;66757;44.024;20.456;2023-09-07T02:35:39;98443.41;;;17.19
66170;BMP280;66757;44.024;20.456;2023-09-07T02:38:04;98437.53;;;16.93
66170;BMP280;66757;44.024;20.456;2023-09-07T02:40:29;98443.06;;;17.08
66170;BMP280;66757;44.024;20.456;2023-09-07T02:42:56;98443.84;;;16.76
66170;BMP280;66757;44.024;20.456;2023-09-07T02:45:21;98440.84;;;16.77
66170;BMP280;66757;44.024;20.456;2023-09-07T02:47:46;98439.44;;;16.59
66170;BMP280;66757;44.024;20.456;2023-09-07T02:50:14;98445.06;;;16.66
66170;BMP280;66757;44.024;20.456;2023-09-07T02:52:41;98447.66;;;16.75
66170;BMP280;66757;44.024;20.456;2023-09-07T02:55:06;98443.38;;;16.95
66170;BMP280;66757;44.024;20.456;2023-09-07T02:57:31;98442.56;;;16.94
66170;BMP280;66757;44.024;20.456;2023-09-07T02:59:58;98433.28;;;16.92
66170;BMP280;66757;44.024;20.456;2023-09-07T03:02:23;98452.09;;;17.04
66170;BMP280;66757;44.024;20.456;2023-09-07T03:04:53;98447.81;;;16.90
66170;BMP280;66757;44.024;20.456;2023-09-07T03:07:18;98448.41;;;16.96
66170;BMP280;66757;44.024;20.456;2023-09-07T03:09:44;98453.94;;;16.91
66170;BMP280;66757;44.024;20.456;2023-09-07T03:12:10;98448.44;;;16.63
66170;BMP280;66757;44.024;20.456;2023-09-07T03:14:35;98448.09;;;16.44
66170;BMP280;66757;44.024;20.456;2023-09-07T03:17:00;98451.19;;;16.34
66170;BMP280;66757;44.024;20.456;2023-09-07T03:19:26;98449.97;;;16.43
66170;BMP280;66757;44.024;20.456;2023-09-07T03:21:52;98459.84;;;16.84
66170;BMP280;66757;44.024;20.456;2023-09-07T03:24:17;98456.94;;;16.24
66170;BMP280;66757;44.024;20.456;2023-09-07T03:26:42;98456.47;;;16.75
66170;BMP280;66757;44.024;20.456;2023-09-07T03:29:11;98459.19;;;16.87
66170;BMP280;66757;44.024;20.456;2023-09-07T03:31:36;98467.09;;;16.84
66170;BMP280;66757;44.024;20.456;2023-09-07T03:34:02;98460.53;;;16.81
66170;BMP280;66757;44.024;20.456;2023-09-07T03:36:29;98459.63;;;16.89
66170;BMP280;66757;44.024;20.456;2023-09-07T03:38:55;98461.59;;;16.68
66170;BMP280;66757;44.024;20.456;2023-09-07T03:41:20;98460.69;;;16.64
66170;BMP280;66757;44.024;20.456;2023-09-07T03:43:46;98458.94;;;16.68
66170;BMP280;66757;44.024;20.456;2023-09-07T03:46:11;98462.66;;;16.55
66170;BMP280;66757;44.024;20.456;2023-09-07T03:48:37;98457.88;;;16.61
66170;BMP280;66757;44.024;20.456;2023-09-07T03:51:06;98470.47;;;16.60
66170;BMP280;66757;44.024;20.456;2023-09-07T03:53:33;98469.63;;;16.06
66170;BMP280;66757;44.024;20.456;2023-09-07T03:55:58;98465.22;;;15.81
66170;BMP280;66757;44.024;20.456;2023-09-07T03:58:23;98469.09;;;16.21
66170;BMP280;66757;44.024;20.456;2023-09-07T04:00:49;98472.47;;;16.51
66170;BMP280;66757;44.024;20.456;2023-09-07T04:03:15;98468.91;;;16.59
66170;BMP280;66757;44.024;20.456;2023-09-07T04:05:41;98466.22;;;16.59
66170;BMP280;66757;44.024;20.456;2023-09-07T04:08:06;98472.81;;;16.62
66170;BMP280;66757;44.024;20.456;2023-09-07T04:10:32;98474.16;;;16.56
66170;BMP280;66757;44.024;20.456;2023-09-07T04:12:59;98477.16;;;16.54
66170;BMP280;66757;44.024;20.456;2023-09-07T04:15:25;98491.53;;;16.49
66170;BMP280;66757;44.024;20.456;2023-09-07T04:17:52;98483.03;;;16.47
66170;BMP280;66757;44.024;20.456;2023-09-07T04:20:20;98486.81;;;16.46
66170;BMP280;66757;44.024;20.456;2023-09-07T04:22:45;98488.47;;;16.39
66170;BMP280;66757;44.024;20.456;2023-09-07T04:25:11;98482.06;;;16.52
66170;BMP280;66757;44.024;20.456;2023-09-07T04:27:37;98478.66;;;16.43
66170;BMP280;66757;44.024;20.456;2023-09-07T04:30:03;98484.00;;;16.43
66170;BMP280;66757;44.024;20.456;2023-09-07T04:32:28;98488.84;;;16.49
66170;BMP280;66757;44.024;20.456;2023-09-07T04:34:56;98483.09;;;16.39
66170;BMP280;66757;44.024;20.456;2023-09-07T04:37:25;98489.03;;;16.24
66170;BMP280;66757;44.024;20.456;2023-09-07T04:42:40;98481.31;;;16.01
66170;BMP280;66757;44.024;20.456;2023-09-07T04:45:06;98484.47;;;16.45
66170;BMP280;66757;44.024;20.456;2023-09-07T04:47:31;98492.19;;;16.46
66170;BMP280;66757;44.024;20.456;2023-09-07T04:49:57;98498.31;;;16.47
66170;BMP280;66757;44.024;20.456;2023-09-07T04:52:22;98489.50;;;16.46
66170;BMP280;66757;44.024;20.456;2023-09-07T04:54:47;98495.69;;;16.59
66170;BMP280;66757;44.024;20.456;2023-09-07T04:57:15;98501.59;;;16.53
66170;BMP280;66757;44.024;20.456;2023-09-07T04:59:41;98511.97;;;16.54
66170;BMP280;66757;44.024;20.456;2023-09-07T05:02:08;98509.25;;;16.42
66170;BMP280;66757;44.024;20.456;2023-09-07T05:04:33;98504.31;;;16.44
66170;BMP280;66757;44.024;20.456;2023-09-07T05:06:58;98508.25;;;16.46
66170;BMP280;66757;44.024;20.456;2023-09-07T05:09:24;98513.91;;;16.45
66170;BMP280;66757;44.024;20.456;2023-09-07T05:11:51;98508.69;;;16.69
66170;BMP280;66757;44.024;20.456;2023-09-07T05:14:18;98506.53;;;16.83
66170;BMP280;66757;44.024;20.456;2023-09-07T05:16:46;98505.78;;;16.74
66170;BMP280;66757;44.024;20.456;2023-09-07T05:19:11;98507.25;;;17.05
66170;BMP280;66757;44.024;20.456;2023-09-07T05:24:29;98512.16;;;17.03
66170;BMP280;66757;44.024;20.456;2023-09-07T05:26:55;98503.72;;;17.13
66170;BMP280;66757;44.024;20.456;2023-09-07T05:29:20;98500.59;;;17.11
66170;BMP280;66757;44.024;20.456;2023-09-07T05:31:47;98506.19;;;17.30
66170;BMP280;66757;44.024;20.456;2023-09-07T05:34:13;98505.34;;;17.05
66170;BMP280;66757;44.024;20.456;2023-09-07T05:36:38;98506.88;;;17.27
66170;BMP280;66757;44.024;20.456;2023-09-07T05:41:55;98507.34;;;17.29
66170;BMP280;66757;44.024;20.456;2023-09-07T05:44:23;98504.06;;;16.90
66170;BMP280;66757;44.024;20.456;2023-09-07T05:46:48;98506.22;;;17.54
66170;BMP280;66757;44.024;20.456;2023-09-07T05:49:13;98504.22;;;18.00
66170;BMP280;66757;44.024;20.456;2023-09-07T05:51:38;98509.22;;;18.14
66170;BMP280;66757;44.024;20.456;2023-09-07T05:56:57;98502.59;;;18.51
66170;BMP280;66757;44.024;20.456;2023-09-07T05:59:23;98508.03;;;18.67
66170;BMP280;66757;44.024;20.456;2023-09-07T06:01:48;98504.63;;;18.82
66170;BMP280;66757;44.024;20.456;2023-09-07T06:04:13;98507.09;;;19.03
66170;BMP280;66757;44.024;20.456;2023-09-07T06:06:39;98507.53;;;19.20
66170;BMP280;66757;44.024;20.456;2023-09-07T06:09:04;98497.13;;;19.03
66170;BMP280;66757;44.024;20.456;2023-09-07T06:11:29;98509.59;;;19.11
66170;BMP280;66757;44.024;20.456;2023-09-07T06:13:57;98513.41;;;19.42
66170;BMP280;66757;44.024;20.456;2023-09-07T06:16:23;98512.63;;;19.41
66170;BMP280;66757;44.024;20.456;2023-09-07T06:18:49;98518.72;;;19.54
66170;BMP280;66757;44.024;20.456;2023-09-07T06:21:14;98518.97;;;19.64
66170;BMP280;66757;44.024;20.456;2023-09-07T06:23:39;98517.78;;;19.62
66170;BMP280;66757;44.024;20.456;2023-09-07T06:26:06;98517.66;;;19.74
66170;BMP280;66757;44.024;20.456;2023-09-07T06:28:31;98516.50;;;19.91
66170;BMP280;66757;44.024;20.456;2023-09-07T06:30:56;98519.69;;;19.96
66170;BMP280;66757;44.024;20.456;2023-09-07T06:33:22;98522.75;;;19.95
66170;BMP280;66757;44.024;20.456;2023-09-07T06:35:47;98522.66;;;20.26
66170;BMP280;66757;44.024;20.456;2023-09-07T06:38:12;98519.28;;;20.33
66170;BMP280;66757;44.024;20.456;2023-09-07T06:40:38;98517.66;;;20.47
66170;BMP280;66757;44.024;20.456;2023-09-07T06:43:04;98521.69;;;20.76
66170;BMP280;66757;44.024;20.456;2023-09-07T06:45:34;98523.75;;;21.06
66170;BMP280;66757;44.024;20.456;2023-09-07T06:47:59;98516.53;;;21.36
66170;BMP280;66757;44.024;20.456;2023-09-07T06:50:24;98519.78;;;21.45
66170;BMP280;66757;44.024;20.456;2023-09-07T06:52:49;98513.81;;;21.59
66170;BMP280;66757;44.024;20.456;2023-09-07T06:55:16;98518.53;;;21.95
66170;BMP280;66757;44.024;20.456;2023-09-07T06:57:41;98518.91;;;22.24
66170;BMP280;66757;44.024;20.456;2023-09-07T07:00:07;98514.56;;;22.45
66170;BMP280;66757;44.024;20.456;2023-09-07T07:02:32;98522.19;;;22.77
66170;BMP280;66757;44.024;20.456;2023-09-07T07:04:59;98517.97;;;22.79
66170;BMP280;66757;44.024;20.456;2023-09-07T07:07:24;98513.97;;;23.07
66170;BMP280;66757;44.024;20.456;2023-09-07T07:09:49;98511.06;;;23.33
66170;BMP280;66757;44.024;20.456;2023-09-07T07:12:16;98511.97;;;23.55
66170;BMP280;66757;44.024;20.456;2023-09-07T07:14:42;98521.06;;;23.29
66170;BMP280;66757;44.024;20.456;2023-09-07T07:17:08;98512.72;;;23.48
66170;BMP280;66757;44.024;20.456;2023-09-07T07:19:34;98516.41;;;23.22
66170;BMP280;66757;44.024;20.456;2023-09-07T07:21:59;98517.56;;;23.21
66170;BMP280;66757;44.024;20.456;2023-09-07T07:24:25;98523.22;;;23.57
66170;BMP280;66757;44.024;20.456;2023-09-07T07:26:50;98523.47;;;23.37
66170;BMP280;66757;44.024;20.456;2023-09-07T07:29:15;98519.34;;;23.58
66170;BMP280;66757;44.024;20.456;2023-09-07T07:31:41;98517.41;;;23.58
66170;BMP280;66757;44.024;20.456;2023-09-07T07:34:06;98514.94;;;24.01
66170;BMP280;66757;44.024;20.456;2023-09-07T07:36:31;98527.31;;;23.98
66170;BMP280;66757;44.024;20.456;2023-09-07T07:38:57;98525.38;;;23.95
66170;BMP280;66757;44.024;20.456;2023-09-07T07:41:22;98526.13;;;23.92
66170;BMP280;66757;44.024;20.456;2023-09-07T07:43:47;98536.16;;;23.88
66170;BMP280;66757;44.024;20.456;2023-09-07T07:46:13;98530.00;;;23.91
66170;BMP280;66757;44.024;20.456;2023-09-07T07:48:40;98539.75;;;24.06
66170;BMP280;66757;44.024;20.456;2023-09-07T07:51:06;98532.09;;;24.47
66170;BMP280;66757;44.024;20.456;2023-09-07T07:53:31;98536.41;;;24.55
66170;BMP280;66757;44.024;20.456;2023-09-07T07:55:57;98536.59;;;23.90
66170;BMP280;66757;44.024;20.456;2023-09-07T07:58:22;98544.78;;;24.04
66170;BMP280;66757;44.024;20.456;2023-09-07T08:00:48;98529.34;;;24.22
66170;BMP280;66757;44.024;20.456;2023-09-07T08:03:15;98536.72;;;24.22
66170;BMP280;66757;44.024;20.456;2023-09-07T08:05:40;98538.66;;;24.28
66170;BMP280;66757;44.024;20.456;2023-09-07T08:08:06;98539.47;;;24.40
66170;BMP280;66757;44.024;20.456;2023-09-07T08:10:35;98553.03;;;24.43
66170;BMP280;66757;44.024;20.456;2023-09-07T08:13:02;98549.63;;;24.67
66170;BMP280;66757;44.024;20.456;2023-09-07T08:15:28;98543.44;;;24.85
66170;BMP280;66757;44.024;20.456;2023-09-07T08:17:53;98546.53;;;24.87
66170;BMP280;66757;44.024;20.456;2023-09-07T08:23:10;98544.94;;;24.54
66170;BMP280;66757;44.024;20.456;2023-09-07T08:25:37;98558.91;;;24.70
66170;BMP280;66757;44.024;20.456;2023-09-07T08:28:04;98545.34;;;24.73
66170;BMP280;66757;44.024;20.456;2023-09-07T08:30:31;98541.88;;;24.98
66170;BMP280;66757;44.024;20.456;2023-09-07T08:32:56;98544.59;;;25.40
66170;BMP280;66757;44.024;20.456;2023-09-07T08:35:21;98534.50;;;25.19
66170;BMP280;66757;44.024;20.456;2023-09-07T08:37:53;98537.09;;;25.76
66170;BMP280;66757;44.024;20.456;2023-09-07T08:40:19;98533.28;;;25.56
66170;BMP280;66757;44.024;20.456;2023-09-07T08:42:44;98526.44;;;26.17
66170;BMP280;66757;44.024;20.456;2023-09-07T08:45:09;98525.72;;;26.09
66170;BMP280;66757;44.024;20.456;2023-09-07T08:47:37;98529.78;;;26.46
66170;BMP280;66757;44.024;20.456;2023-09-07T08:50:03;98527.31;;;26.66
66170;BMP280;66757;44.024;20.456;2023-09-07T08:52:29;98527.97;;;26.80
66170;BMP280;66757;44.024;20.456;2023-09-07T08:54:55;98525.25;;;26.80
66170;BMP280;66757;44.024;20.456;2023-09-07T08:57:23;98531.03;;;26.86
66170;BMP280;66757;44.024;20.456;2023-09-07T08:59:49;98525.66;;;27.23
66170;BMP280;66757;44.024;20.456;2023-09-07T09:02:15;98526.03;;;27.22
66170;BMP280;66757;44.024;20.456;2023-09-07T09:04:41;98527.09;;;27.35
66170;BMP280;66757;44.024;20.456;2023-09-07T09:07:07;98520.06;;;27.34
66170;BMP280;66757;44.024;20.456;2023-09-07T09:09:32;98516.53;;;27.37
66170;BMP280;66757;44.024;20.456;2023-09-07T09:12:10;98517.88;;;27.22
66170;BMP280;66757;44.024;20.456;2023-09-07T09:14:35;98517.50;;;27.20
66170;BMP280;66757;44.024;20.456;2023-09-07T09:17:01;98508.06;;;27.31
66170;BMP280;66757;44.024;20.456;2023-09-07T09:19:30;98509.09;;;27.44
66170;BMP280;66757;44.024;20.456;2023-09-07T09:21:56;98515.56;;;28.15
66170;BMP280;66757;44.024;20.456;2023-09-07T09:24:21;98522.00;;;28.28
66170;BMP280;66757;44.024;20.456;2023-09-07T09:26:46;98518.41;;;27.77
66170;BMP280;66757;44.024;20.456;2023-09-07T09:29:12;98513.22;;;27.86
66170;BMP280;66757;44.024;20.456;2023-09-07T09:31:37;98526.00;;;27.93
66170;BMP280;66757;44.024;20.456;2023-09-07T09:34:03;98518.00;;;28.09
66170;BMP280;66757;44.024;20.456;2023-09-07T09:36:35;98521.56;;;28.02
66170;BMP280;66757;44.024;20.456;2023-09-07T09:39:01;98514.00;;;28.14
66170;BMP280;66757;44.024;20.456;2023-09-07T09:41:26;98518.38;;;28.08
66170;BMP280;66757;44.024;20.456;2023-09-07T09:43:52;98527.78;;;27.76
66170;BMP280;66757;44.024;20.456;2023-09-07T09:46:18;98518.88;;;27.99
66170;BMP280;66757;44.024;20.456;2023-09-07T09:48:43;98519.78;;;28.46
66170;BMP280;66757;44.024;20.456;2023-09-07T09:51:09;98521.63;;;28.26
66170;BMP280;66757;44.024;20.456;2023-09-07T09:53:36;98522.81;;;28.51
66170;BMP280;66757;44.024;20.456;2023-09-07T09:56:02;98522.53;;;28.92
66170;BMP280;66757;44.024;20.456;2023-09-07T09:58:27;98509.44;;;28.57
66170;BMP280;66757;44.024;20.456;2023-09-07T10:00:54;98514.78;;;29.11
66170;BMP280;66757;44.024;20.456;2023-09-07T10:03:31;98506.38;;;29.41
66170;BMP280;66757;44.024;20.456;2023-09-07T10:06:10;98508.91;;;29.32
66170;BMP280;66757;44.024;20.456;2023-09-07T10:08:36;98512.59;;;29.61
66170;BMP280;66757;44.024;20.456;2023-09-07T10:11:06;98509.00;;;29.84
66170;BMP280;66757;44.024;20.456;2023-09-07T10:13:32;98513.53;;;29.90
66170;BMP280;66757;44.024;20.456;2023-09-07T10:16:07;98505.41;;;29.51
66170;BMP280;66757;44.024;20.456;2023-09-07T10:18:34;98507.56;;;29.20
66170;BMP280;66757;44.024;20.456;2023-09-07T10:21:00;98505.34;;;29.15
66170;BMP280;66757;44.024;20.456;2023-09-07T10:23:43;98504.31;;;29.06
66170;BMP280;66757;44.024;20.456;2023-09-07T10:26:18;98503.06;;;29.10
66170;BMP280;66757;44.024;20.456;2023-09-07T10:28:44;98503.16;;;28.83
66170;BMP280;66757;44.024;20.456;2023-09-07T10:31:13;98504.47;;;28.75
66170;BMP280;66757;44.024;20.456;2023-09-07T10:33:39;98490.00;;;28.55
66170;BMP280;66757;44.024;20.456;2023-09-07T10:36:04;98507.22;;;28.52
66170;BMP280;66757;44.024;20.456;2023-09-07T10:38:33;98500.28;;;27.94
66170;BMP280;66757;44.024;20.456;2023-09-07T10:41:00;98498.88;;;28.36
66170;BMP280;66757;44.024;20.456;2023-09-07T10:43:28;98509.81;;;28.36
66170;BMP280;66757;44.024;20.456;2023-09-07T10:45:54;98522.28;;;29.26
66170;BMP280;66757;44.024;20.456;2023-09-07T10:48:19;98519.88;;;30.68
66170;BMP280;66757;44.024;20.456;2023-09-07T10:50:46;98511.22;;;32.07
66170;BMP280;66757;44.024;20.456;2023-09-07T10:53:12;98502.66;;;32.73
66170;BMP280;66757;44.024;20.456;2023-09-07T10:55:40;98503.72;;;32.07
66170;BMP280;66757;44.024;20.456;2023-09-07T10:58:06;98502.22;;;31.68
66170;BMP280;66757;44.024;20.456;2023-09-07T11:00:34;98507.72;;;31.14
66170;BMP280;66757;44.024;20.456;2023-09-07T11:03:06;98517.47;;;32.20
66170;BMP280;66757;44.024;20.456;2023-09-07T11:05:32;98514.53;;;33.97
66170;BMP280;66757;44.024;20.456;2023-09-07T11:07:58;98508.16;;;35.00
66170;BMP280;66757;44.024;20.456;2023-09-07T11:10:25;98513.34;;;35.81
66170;BMP280;66757;44.024;20.456;2023-09-07T11:12:51;98506.41;;;35.53
66170;BMP280;66757;44.024;20.456;2023-09-07T11:15:18;98512.28;;;34.13
66170;BMP280;66757;44.024;20.456;2023-09-07T11:17:44;98511.94;;;35.53
66170;BMP280;66757;44.024;20.456;2023-09-07T11:20:09;98493.44;;;36.01
66170;BMP280;66757;44.024;20.456;2023-09-07T11:22:35;98504.00;;;34.95
66170;BMP280;66757;44.024;20.456;2023-09-07T11:25:03;98501.91;;;36.36
66170;BMP280;66757;44.024;20.456;2023-09-07T11:27:29;98504.84;;;35.94
66170;BMP280;66757;44.024;20.456;2023-09-07T11:29:55;98498.72;;;35.66
66170;BMP280;66757;44.024;20.456;2023-09-07T11:32:21;98505.28;;;34.76
66170;BMP280;66757;44.024;20.456;2023-09-07T11:34:50;98503.31;;;33.82
66170;BMP280;66757;44.024;20.456;2023-09-07T11:37:16;98488.03;;;33.90
66170;BMP280;66757;44.024;20.456;2023-09-07T11:39:42;98498.81;;;34.25
66170;BMP280;66757;44.024;20.456;2023-09-07T11:42:07;98484.34;;;33.84
66170;BMP280;66757;44.024;20.456;2023-09-07T11:44:33;98485.06;;;34.61
66170;BMP280;66757;44.024;20.456;2023-09-07T11:46:58;98492.03;;;34.07
66170;BMP280;66757;44.024;20.456;2023-09-07T11:49:23;98482.41;;;33.54
66170;BMP280;66757;44.024;20.456;2023-09-07T11:51:49;98475.63;;;33.37
66170;BMP280;66757;44.024;20.456;2023-09-07T11:54:16;98467.16;;;33.00
66170;BMP280;66757;44.024;20.456;2023-09-07T11:56:41;98468.28;;;32.47
66170;BMP280;66757;44.024;20.456;2023-09-07T11:59:08;98467.25;;;31.18
66170;BMP280;66757;44.024;20.456;2023-09-07T12:01:34;98463.09;;;30.56
66170;BMP280;66757;44.024;20.456;2023-09-07T12:04:02;98481.41;;;30.43
66170;BMP280;66757;44.024;20.456;2023-09-07T12:06:29;98460.34;;;29.91
66170;BMP280;66757;44.024;20.456;2023-09-07T12:09:05;98456.50;;;29.89
66170;BMP280;66757;44.024;20.456;2023-09-07T12:11:35;98456.34;;;30.12
66170;BMP280;66757;44.024;20.456;2023-09-07T12:14:00;98452.31;;;30.17
66170;BMP280;66757;44.024;20.456;2023-09-07T12:16:26;98450.78;;;30.32
66170;BMP280;66757;44.024;20.456;2023-09-07T12:18:51;98450.94;;;29.92
66170;BMP280;66757;44.024;20.456;2023-09-07T12:21:16;98439.97;;;29.60
66170;BMP280;66757;44.024;20.456;2023-09-07T12:23:42;98442.91;;;29.85
66170;BMP280;66757;44.024;20.456;2023-09-07T12:26:07;98432.56;;;29.93
66170;BMP280;66757;44.024;20.456;2023-09-07T12:28:34;98443.44;;;30.13
66170;BMP280;66757;44.024;20.456;2023-09-07T12:31:00;98433.50;;;29.86
66170;BMP280;66757;44.024;20.456;2023-09-07T12:33:25;98441.97;;;29.40
66170;BMP280;66757;44.024;20.456;2023-09-07T12:35:51;98438.56;;;30.04
66170;BMP280;66757;44.024;20.456;2023-09-07T12:38:17;98427.88;;;30.26
66170;BMP280;66757;44.024;20.456;2023-09-07T12:40:48;98441.03;;;30.15
66170;BMP280;66757;44.024;20.456;2023-09-07T12:43:13;98432.53;;;29.96
66170;BMP280;66757;44.024;20.456;2023-09-07T12:45:39;98440.00;;;29.76
66170;BMP280;66757;44.024;20.456;2023-09-07T12:48:04;98433.00;;;30.08
66170;BMP280;66757;44.024;20.456;2023-09-07T12:50:29;98430.06;;;30.47
66170;BMP280;66757;44.024;20.456;2023-09-07T12:52:55;98426.41;;;29.89
66170;BMP280;66757;44.024;20.456;2023-09-07T12:55:20;98435.47;;;30.18
66170;BMP280;66757;44.024;20.456;2023-09-07T12:57:45;98422.56;;;29.86
66170;BMP280;66757;44.024;20.456;2023-09-07T13:00:11;98427.28;;;29.50
66170;BMP280;66757;44.024;20.456;2023-09-07T13:02:37;98418.81;;;30.13
66170;BMP280;66757;44.024;20.456;2023-09-07T13:05:02;98423.59;;;30.70
66170;BMP280;66757;44.024;20.456;2023-09-07T13:07:31;98427.66;;;30.49
66170;BMP280;66757;44.024;20.456;2023-09-07T13:09:57;98423.91;;;30.43
66170;BMP280;66757;44.024;20.456;2023-09-07T13:12:23;98425.31;;;30.02
66170;BMP280;66757;44.024;20.456;2023-09-07T13:14:49;98424.91;;;30.49
66170;BMP280;66757;44.024;20.456;2023-09-07T13:17:17;98421.97;;;30.72
66170;BMP280;66757;44.024;20.456;2023-09-07T13:19:42;98419.06;;;30.63
66170;BMP280;66757;44.024;20.456;2023-09-07T13:22:08;98413.50;;;30.22
66170;BMP280;66757;44.024;20.456;2023-09-07T13:24:33;98424.25;;;30.74
66170;BMP280;66757;44.024;20.456;2023-09-07T13:26:59;98412.72;;;30.95
66170;BMP280;66757;44.024;20.456;2023-09-07T13:29:24;98413.53;;;31.21
66170;BMP280;66757;44.024;20.456;2023-09-07T13:31:52;98401.75;;;30.95
66170;BMP280;66757;44.024;20.456;2023-09-07T13:34:18;98407.28;;;30.79
66170;BMP280;66757;44.024;20.456;2023-09-07T13:36:44;98411.06;;;30.69
66170;BMP280;66757;44.024;20.456;2023-09-07T13:39:09;98410.34;;;30.52
66170;BMP280;66757;44.024;20.456;2023-09-07T13:41:35;98405.94;;;30.99
66170;BMP280;66757;44.024;20.456;2023-09-07T13:44:00;98394.25;;;30.83
66170;BMP280;66757;44.024;20.456;2023-09-07T13:46:26;98409.13;;;30.40
66170;BMP280;66757;44.024;20.456;2023-09-07T13:48:51;98405.31;;;30.79
66170;BMP280;66757;44.024;20.456;2023-09-07T13:51:16;98409.16;;;30.53
66170;BMP280;66757;44.024;20.456;2023-09-07T13:53:42;98400.28;;;30.78
66170;BMP280;66757;44.024;20.456;2023-09-07T13:56:07;98397.31;;;30.72
66170;BMP280;66757;44.024;20.456;2023-09-07T13:58:32;98391.50;;;30.70
66170;BMP280;66757;44.024;20.456;2023-09-07T14:00:58;98392.94;;;30.75
66170;BMP280;66757;44.024;20.456;2023-09-07T14:03:23;98395.97;;;30.19
66170;BMP280;66757;44.024;20.456;2023-09-07T14:05:48;98397.25;;;30.15